Donnellson, IL

08:47 AM CDT on octombrie 22, 2014 (GMT -0500)
Litchfield | Change Station
CLOSE
Current Station
Aeroport
Location: Litchfield,
Elevation: 689 ft
Nearby Weather Stations

Elev 689 ft 39.16 °N, 89.67 °W | Updated 12 minutes ago

Cer senin
Cer senin
43 °F
Feels Like 37 °F
N
10
Vânt variabil Vânt from est

astăzi
High -- | Low -- °F
--% Chance of Precip.
Ieri
High -- | Low -- °F
Precip. -- inch
7:14 AM 6:09 PM
Semilună în descreştere, 2% visible
Presiunea 30.32 inch
Vizibilitatea 10.0 mile
Nori Cer senin
Vânt rece 37 °F
Punctul de rouă 38 °F
Umiditatea 82%
Precipitaţii 0.00 inch
Adâncimea zăpezii Not available.
UV 1 out of 12
Pollen 1.70 out of 12
Calitatea aerului Not available.
Flu Activity No Activity
METAR K3LF 221335Z AUTO 09009KT 10SM CLR 06/03 A3032 RMK AO2 T00600032

More Conditions Fewer Conditions

Presiunea 30.32 inch
Vizibilitatea 10.0 mile
Nori Cer senin
Vânt rece 37 °F
Punctul de rouă 38 °F
Umiditatea 82%
Precipitaţii 0.00 inch
Adâncimea zăpezii Not available.
UV 1 out of 12
Pollen 1.70 out of 12
Calitatea aerului Not available.
Flu Activity No Activity
METAR K3LF 221335Z AUTO 09009KT 10SM CLR 06/03 A3032 RMK AO2 T00600032

More Conditions Fewer Conditions

10-Day Weather Forecast

Almanac

Astronomie

Oct. 22, 2014 Răsărit Apus
Timpul Actual 7:14 AM CDT 6:09 PM CDT
Crepusculul Civil 6:47 AM CDT 6:36 PM CDT
Crepusculul nautic 6:16 AM CDT 7:07 PM CDT
Răsărit Astronomic 5:45 AM CDT 7:38 PM CDT
Luna 5:56 AM CDT 5:35 PM CDT
Durata zilei lumină 11h 49m
Lungimea zilei
10h 54m
Tomorrow will be 2m 23s shorter.
Semilună în descreştere, 2% of the Moon is Illuminated
astăzi
Semilună în descreştere
Oct 23
New
Oct 30
Primul pătrar
Nov 6
Lună plină
Nov 14
Ultimul pătrar

Extremele de azi

State Highs State Lows

Community

WunderPhotos

Upload Photos

1,763,919 photos uploaded!

Nearby

Adâncimea zapezii

Station Depth Elevation
No new snow has been reported.

Earthquake Activity

Oraş Distance Mag. Time & Date
No recent earthquake activity has been reported nearby.
Minimum magnitude displayed is 2.5.

Coastal Water Temperatures

Locul Temperatura
No Stations Reporting

Nearby Weather Stations